KPIB/PIB METAR and TAF weather

Enter ICAO airport designator
Station Type Date Time Source
KPIB METAR 2022/11/30 09:08 UTC NOAA

KPIB 300908Z AUTO 00000KT 10SM SCT033 BKN045 BKN060 21/21 A2992 RMK AO2 LTG DSNT ALQDS TSE02


Station Type Date Time Source
KPIB Decoded METAR 2022/11/30 09:08 UTC NOAA

Hattiesburg/Laurel, Hattiesburg-Laurel Regional Airport, MS, United States (KPIB) 31-28N 089-20W
Nov 30, 2022 - 04:08 AM EST / 2022.11.30 0908 UTC
Wind: Calm:0
Visibility: 10 mile(s):0
Sky conditions: mostly cloudy
Weather: Lightning observed
Temperature: 69 F (21 C)
Dew Point: 69 F (21 C)
Relative Humidity: 100%
Pressure (altimeter): 29.92 in. Hg (1013 hPa)
ob: KPIB 300908Z AUTO 00000KT 10SM SCT033 BKN045 BKN060 21/21 A2992 RMK AO2 LTG DSNT ALQDS TSE02
cycle: 9

Station Type Date Time Source
KPIB TAF 2022/11/30 06:45 UTC NOAA

TAF KPIB 300544Z 3006/0106 17008KT P6SM -TSRA BKN015CB OVC025
FM301100 30008KT 6SM -TSRA BKN013CB
FM301300 34012KT P6SM SCT027 WS020/36040KT
FM302000 01012KT P6SM SKC

Example: see airport list